Saint Peter Port, United Kingdom
Current Conditions -  °F | °C
As of 8:50 AM on Friday 24 Oct 2014 (Local Time) from EGJB Reporting Station
Light Rain Light Rain  
Wind Chill: 15°   Ceiling: 100
Heat Index: 15°   Visibility: 1mi
Dew Point: 15°   Wind: 15mph
Humidity: 100%   Direction: 220°SW
Pressure: 30.03"   Gusts: NA
Location:  49.46°N, 2.54°W
Report Text: EGJB 240750Z 22013KT 1600 R27/1100 -RA BR FEW000 BKN001 15/15 Q1017
Loading
Personal Weather Stations






























Interactive Weather Map
Tropical Storm Tracking
New forecast layout! Learn more

10-Day Weather Forecast

Advertisements
Track Severe Weather on mobile